sensor_id;sensor_type;location;lat;lon;timestamp;P1;durP1;ratioP1;P2;durP2;ratioP2
18228;SDS011;9239;50.932;3.142;2023-10-08T00:02:23;4.70;;;3.30;;
18228;SDS011;9239;50.932;3.142;2023-10-08T00:04:51;7.25;;;3.35;;
18228;SDS011;9239;50.932;3.142;2023-10-08T00:07:19;5.90;;;3.63;;
18228;SDS011;9239;50.932;3.142;2023-10-08T00:09:48;5.80;;;3.10;;
18228;SDS011;9239;50.932;3.142;2023-10-08T00:12:16;4.55;;;3.13;;
18228;SDS011;9239;50.932;3.142;2023-10-08T00:14:45;4.95;;;3.50;;
18228;SDS011;9239;50.932;3.142;2023-10-08T00:17:14;6.15;;;3.22;;
18228;SDS011;9239;50.932;3.142;2023-10-08T00:19:42;5.30;;;3.42;;
18228;SDS011;9239;50.932;3.142;2023-10-08T00:22:09;4.75;;;3.33;;
18228;SDS011;9239;50.932;3.142;2023-10-08T00:24:38;4.15;;;3.30;;
18228;SDS011;9239;50.932;3.142;2023-10-08T00:27:07;6.32;;;3.38;;
18228;SDS011;9239;50.932;3.142;2023-10-08T00:29:34;8.65;;;3.50;;
18228;SDS011;9239;50.932;3.142;2023-10-08T00:32:06;5.57;;;3.60;;
18228;SDS011;9239;50.932;3.142;2023-10-08T00:34:40;3.65;;;3.20;;
18228;SDS011;9239;50.932;3.142;2023-10-08T00:37:08;4.90;;;3.50;;
18228;SDS011;9239;50.932;3.142;2023-10-08T00:39:39;4.53;;;3.83;;
18228;SDS011;9239;50.932;3.142;2023-10-08T00:42:06;4.68;;;3.65;;
18228;SDS011;9239;50.932;3.142;2023-10-08T00:44:34;5.20;;;3.88;;
18228;SDS011;9239;50.932;3.142;2023-10-08T00:47:08;6.13;;;3.70;;
18228;SDS011;9239;50.932;3.142;2023-10-08T00:49:37;5.75;;;3.20;;
18228;SDS011;9239;50.932;3.142;2023-10-08T00:52:13;4.80;;;3.35;;
18228;SDS011;9239;50.932;3.142;2023-10-08T00:54:55;4.22;;;3.25;;
18228;SDS011;9239;50.932;3.142;2023-10-08T00:57:34;5.30;;;3.20;;
18228;SDS011;9239;50.932;3.142;2023-10-08T01:00:08;5.40;;;3.03;;
18228;SDS011;9239;50.932;3.142;2023-10-08T01:02:44;5.50;;;3.92;;
18228;SDS011;9239;50.932;3.142;2023-10-08T01:05:14;4.97;;;3.95;;
18228;SDS011;9239;50.932;3.142;2023-10-08T01:07:45;4.57;;;3.65;;
18228;SDS011;9239;50.932;3.142;2023-10-08T01:10:16;4.40;;;3.30;;
18228;SDS011;9239;50.932;3.142;2023-10-08T01:12:46;3.97;;;3.33;;
18228;SDS011;9239;50.932;3.142;2023-10-08T01:15:29;9.68;;;4.05;;
18228;SDS011;9239;50.932;3.142;2023-10-08T01:18:02;5.63;;;3.58;;
18228;SDS011;9239;50.932;3.142;2023-10-08T01:20:30;4.80;;;3.60;;
18228;SDS011;9239;50.932;3.142;2023-10-08T01:23:03;6.50;;;4.30;;
18228;SDS011;9239;50.932;3.142;2023-10-08T01:25:35;5.63;;;3.70;;
18228;SDS011;9239;50.932;3.142;2023-10-08T01:28:06;7.55;;;4.20;;
18228;SDS011;9239;50.932;3.142;2023-10-08T01:30:40;7.03;;;4.32;;
18228;SDS011;9239;50.932;3.142;2023-10-08T01:33:11;5.45;;;3.83;;
18228;SDS011;9239;50.932;3.142;2023-10-08T01:35:40;5.45;;;4.07;;
18228;SDS011;9239;50.932;3.142;2023-10-08T01:38:09;4.82;;;3.85;;
18228;SDS011;9239;50.932;3.142;2023-10-08T01:40:41;6.68;;;3.78;;
18228;SDS011;9239;50.932;3.142;2023-10-08T01:43:15;6.18;;;3.95;;
18228;SDS011;9239;50.932;3.142;2023-10-08T01:45:43;4.85;;;3.70;;
18228;SDS011;9239;50.932;3.142;2023-10-08T01:48:13;7.85;;;3.97;;
18228;SDS011;9239;50.932;3.142;2023-10-08T01:50:45;5.13;;;3.75;;
18228;SDS011;9239;50.932;3.142;2023-10-08T01:53:14;6.30;;;4.30;;
18228;SDS011;9239;50.932;3.142;2023-10-08T01:55:41;5.80;;;4.88;;
18228;SDS011;9239;50.932;3.142;2023-10-08T01:58:14;5.60;;;3.92;;
18228;SDS011;9239;50.932;3.142;2023-10-08T02:00:43;6.10;;;4.47;;
18228;SDS011;9239;50.932;3.142;2023-10-08T02:03:11;6.45;;;4.30;;
18228;SDS011;9239;50.932;3.142;2023-10-08T02:05:40;5.90;;;4.50;;
18228;SDS011;9239;50.932;3.142;2023-10-08T02:08:08;4.88;;;4.38;;
18228;SDS011;9239;50.932;3.142;2023-10-08T02:10:37;5.40;;;3.95;;
18228;SDS011;9239;50.932;3.142;2023-10-08T02:13:06;7.75;;;4.03;;
18228;SDS011;9239;50.932;3.142;2023-10-08T02:15:34;7.13;;;4.68;;
18228;SDS011;9239;50.932;3.142;2023-10-08T02:18:04;6.13;;;4.50;;
18228;SDS011;9239;50.932;3.142;2023-10-08T02:20:32;7.53;;;5.03;;
18228;SDS011;9239;50.932;3.142;2023-10-08T02:22:59;5.95;;;4.53;;
18228;SDS011;9239;50.932;3.142;2023-10-08T02:25:26;4.85;;;4.00;;
18228;SDS011;9239;50.932;3.142;2023-10-08T02:27:54;5.47;;;4.47;;
18228;SDS011;9239;50.932;3.142;2023-10-08T02:30:22;4.90;;;4.25;;
18228;SDS011;9239;50.932;3.142;2023-10-08T02:32:52;5.65;;;4.72;;
18228;SDS011;9239;50.932;3.142;2023-10-08T02:35:19;6.75;;;4.35;;
18228;SDS011;9239;50.932;3.142;2023-10-08T02:37:47;7.88;;;5.30;;
18228;SDS011;9239;50.932;3.142;2023-10-08T02:40:14;7.68;;;5.05;;
18228;SDS011;9239;50.932;3.142;2023-10-08T02:42:51;5.55;;;4.53;;
18228;SDS011;9239;50.932;3.142;2023-10-08T02:45:24;8.57;;;4.70;;
18228;SDS011;9239;50.932;3.142;2023-10-08T02:47:52;6.93;;;5.47;;
18228;SDS011;9239;50.932;3.142;2023-10-08T02:50:19;7.50;;;4.95;;
18228;SDS011;9239;50.932;3.142;2023-10-08T02:52:47;7.75;;;4.75;;
18228;SDS011;9239;50.932;3.142;2023-10-08T02:55:15;6.47;;;5.22;;
18228;SDS011;9239;50.932;3.142;2023-10-08T02:57:53;8.55;;;5.28;;
18228;SDS011;9239;50.932;3.142;2023-10-08T03:00:22;7.30;;;4.57;;
18228;SDS011;9239;50.932;3.142;2023-10-08T03:02:56;6.38;;;5.35;;
18228;SDS011;9239;50.932;3.142;2023-10-08T03:05:23;7.70;;;5.85;;
18228;SDS011;9239;50.932;3.142;2023-10-08T03:07:55;4.95;;;4.47;;
18228;SDS011;9239;50.932;3.142;2023-10-08T03:10:23;7.05;;;5.45;;
18228;SDS011;9239;50.932;3.142;2023-10-08T03:12:57;9.57;;;5.90;;
18228;SDS011;9239;50.932;3.142;2023-10-08T03:15:29;7.25;;;5.05;;
18228;SDS011;9239;50.932;3.142;2023-10-08T03:18:05;6.82;;;5.57;;
18228;SDS011;9239;50.932;3.142;2023-10-08T03:20:35;4.93;;;4.45;;
18228;SDS011;9239;50.932;3.142;2023-10-08T03:23:08;7.88;;;5.28;;
18228;SDS011;9239;50.932;3.142;2023-10-08T03:25:50;6.78;;;5.25;;
18228;SDS011;9239;50.932;3.142;2023-10-08T03:28:22;6.53;;;4.85;;
18228;SDS011;9239;50.932;3.142;2023-10-08T03:30:52;5.57;;;4.30;;
18228;SDS011;9239;50.932;3.142;2023-10-08T03:33:29;5.82;;;4.93;;
18228;SDS011;9239;50.932;3.142;2023-10-08T03:35:59;5.10;;;4.55;;
18228;SDS011;9239;50.932;3.142;2023-10-08T03:38:34;5.90;;;5.35;;
18228;SDS011;9239;50.932;3.142;2023-10-08T03:41:15;7.95;;;4.97;;
18228;SDS011;9239;50.932;3.142;2023-10-08T03:43:43;6.65;;;4.95;;
18228;SDS011;9239;50.932;3.142;2023-10-08T03:46:18;10.63;;;5.78;;
18228;SDS011;9239;50.932;3.142;2023-10-08T03:48:48;8.27;;;4.95;;
18228;SDS011;9239;50.932;3.142;2023-10-08T03:51:16;6.68;;;4.88;;
18228;SDS011;9239;50.932;3.142;2023-10-08T03:53:46;7.05;;;4.90;;
18228;SDS011;9239;50.932;3.142;2023-10-08T03:56:35;7.32;;;5.20;;
18228;SDS011;9239;50.932;3.142;2023-10-08T03:59:03;5.95;;;5.00;;
18228;SDS011;9239;50.932;3.142;2023-10-08T04:01:37;6.82;;;4.85;;
18228;SDS011;9239;50.932;3.142;2023-10-08T04:04:06;5.75;;;4.78;;
18228;SDS011;9239;50.932;3.142;2023-10-08T04:06:38;6.32;;;4.75;;
18228;SDS011;9239;50.932;3.142;2023-10-08T04:09:12;7.68;;;4.88;;
18228;SDS011;9239;50.932;3.142;2023-10-08T04:11:49;6.75;;;5.38;;
18228;SDS011;9239;50.932;3.142;2023-10-08T04:14:22;6.88;;;5.70;;
18228;SDS011;9239;50.932;3.142;2023-10-08T04:16:50;5.00;;;4.50;;
18228;SDS011;9239;50.932;3.142;2023-10-08T04:19:19;5.18;;;4.65;;
18228;SDS011;9239;50.932;3.142;2023-10-08T04:21:52;8.65;;;5.93;;
18228;SDS011;9239;50.932;3.142;2023-10-08T04:24:24;6.93;;;5.07;;
18228;SDS011;9239;50.932;3.142;2023-10-08T04:26:59;8.98;;;5.18;;
18228;SDS011;9239;50.932;3.142;2023-10-08T04:29:28;6.80;;;5.30;;
18228;SDS011;9239;50.932;3.142;2023-10-08T04:31:57;5.22;;;4.72;;
18228;SDS011;9239;50.932;3.142;2023-10-08T04:34:34;5.55;;;5.00;;
18228;SDS011;9239;50.932;3.142;2023-10-08T04:37:01;5.38;;;4.88;;
18228;SDS011;9239;50.932;3.142;2023-10-08T04:39:35;6.10;;;4.82;;
18228;SDS011;9239;50.932;3.142;2023-10-08T04:42:04;13.52;;;5.55;;
18228;SDS011;9239;50.932;3.142;2023-10-08T04:44:35;5.13;;;4.57;;
18228;SDS011;9239;50.932;3.142;2023-10-08T04:47:05;7.35;;;5.22;;
18228;SDS011;9239;50.932;3.142;2023-10-08T04:49:35;8.55;;;5.65;;
18228;SDS011;9239;50.932;3.142;2023-10-08T04:52:10;6.57;;;5.40;;
18228;SDS011;9239;50.932;3.142;2023-10-08T04:54:40;7.75;;;5.95;;
18228;SDS011;9239;50.932;3.142;2023-10-08T04:57:17;6.35;;;5.63;;
18228;SDS011;9239;50.932;3.142;2023-10-08T04:59:47;6.53;;;5.55;;
18228;SDS011;9239;50.932;3.142;2023-10-08T05:02:16;6.60;;;5.68;;
18228;SDS011;9239;50.932;3.142;2023-10-08T05:04:56;5.72;;;5.20;;
18228;SDS011;9239;50.932;3.142;2023-10-08T05:07:32;8.20;;;5.30;;
18228;SDS011;9239;50.932;3.142;2023-10-08T05:10:19;6.43;;;5.07;;
18228;SDS011;9239;50.932;3.142;2023-10-08T05:13:03;6.18;;;5.40;;
18228;SDS011;9239;50.932;3.142;2023-10-08T05:15:41;7.55;;;5.22;;
18228;SDS011;9239;50.932;3.142;2023-10-08T05:18:27;6.45;;;4.97;;
18228;SDS011;9239;50.932;3.142;2023-10-08T05:21:15;8.13;;;5.30;;
18228;SDS011;9239;50.932;3.142;2023-10-08T05:23:51;5.30;;;4.60;;
18228;SDS011;9239;50.932;3.142;2023-10-08T05:26:40;6.05;;;4.75;;
18228;SDS011;9239;50.932;3.142;2023-10-08T05:29:14;5.90;;;5.30;;
18228;SDS011;9239;50.932;3.142;2023-10-08T05:31:58;9.20;;;5.90;;
18228;SDS011;9239;50.932;3.142;2023-10-08T05:34:40;5.93;;;5.28;;
18228;SDS011;9239;50.932;3.142;2023-10-08T05:37:17;7.10;;;6.03;;
18228;SDS011;9239;50.932;3.142;2023-10-08T05:40:07;6.32;;;5.72;;
18228;SDS011;9239;50.932;3.142;2023-10-08T05:42:46;8.65;;;5.88;;
18228;SDS011;9239;50.932;3.142;2023-10-08T05:45:14;6.43;;;5.60;;
18228;SDS011;9239;50.932;3.142;2023-10-08T05:47:54;7.32;;;5.80;;
18228;SDS011;9239;50.932;3.142;2023-10-08T05:50:38;6.30;;;5.53;;
18228;SDS011;9239;50.932;3.142;2023-10-08T05:53:09;6.53;;;5.45;;
18228;SDS011;9239;50.932;3.142;2023-10-08T05:55:55;7.13;;;5.80;;
18228;SDS011;9239;50.932;3.142;2023-10-08T05:58:50;6.78;;;5.68;;
18228;SDS011;9239;50.932;3.142;2023-10-08T06:01:39;6.78;;;5.30;;
18228;SDS011;9239;50.932;3.142;2023-10-08T06:04:07;9.68;;;6.22;;
18228;SDS011;9239;50.932;3.142;2023-10-08T06:07:07;6.55;;;5.80;;
18228;SDS011;9239;50.932;3.142;2023-10-08T06:09:43;6.60;;;5.07;;
18228;SDS011;9239;50.932;3.142;2023-10-08T06:12:26;5.38;;;4.88;;
18228;SDS011;9239;50.932;3.142;2023-10-08T06:14:56;7.07;;;5.75;;
18228;SDS011;9239;50.932;3.142;2023-10-08T06:17:43;8.57;;;5.95;;
18228;SDS011;9239;50.932;3.142;2023-10-08T06:20:29;12.40;;;6.22;;
18228;SDS011;9239;50.932;3.142;2023-10-08T06:22:55;9.38;;;6.30;;
18228;SDS011;9239;50.932;3.142;2023-10-08T06:25:30;8.85;;;5.90;;
18228;SDS011;9239;50.932;3.142;2023-10-08T06:27:56;6.90;;;5.63;;
18228;SDS011;9239;50.932;3.142;2023-10-08T06:30:24;7.22;;;5.95;;
18228;SDS011;9239;50.932;3.142;2023-10-08T06:32:54;9.95;;;6.68;;
18228;SDS011;9239;50.932;3.142;2023-10-08T06:35:22;9.80;;;8.38;;
18228;SDS011;9239;50.932;3.142;2023-10-08T06:37:52;6.88;;;6.10;;
18228;SDS011;9239;50.932;3.142;2023-10-08T06:40:24;9.88;;;6.90;;
18228;SDS011;9239;50.932;3.142;2023-10-08T06:43:09;10.27;;;6.18;;
18228;SDS011;9239;50.932;3.142;2023-10-08T06:45:47;8.98;;;6.82;;
18228;SDS011;9239;50.932;3.142;2023-10-08T06:48:17;7.68;;;6.68;;
18228;SDS011;9239;50.932;3.142;2023-10-08T06:50:46;8.60;;;7.05;;
18228;SDS011;9239;50.932;3.142;2023-10-08T06:53:14;11.15;;;7.88;;
18228;SDS011;9239;50.932;3.142;2023-10-08T06:55:43;9.50;;;8.10;;
18228;SDS011;9239;50.932;3.142;2023-10-08T06:58:14;10.82;;;7.90;;
18228;SDS011;9239;50.932;3.142;2023-10-08T07:00:43;11.50;;;8.63;;
18228;SDS011;9239;50.932;3.142;2023-10-08T07:03:14;9.93;;;8.90;;
18228;SDS011;9239;50.932;3.142;2023-10-08T07:05:43;9.80;;;8.25;;
18228;SDS011;9239;50.932;3.142;2023-10-08T07:08:19;10.50;;;7.65;;
18228;SDS011;9239;50.932;3.142;2023-10-08T07:10:48;9.73;;;7.93;;
18228;SDS011;9239;50.932;3.142;2023-10-08T07:13:17;9.23;;;7.50;;
18228;SDS011;9239;50.932;3.142;2023-10-08T07:15:47;9.95;;;7.45;;
18228;SDS011;9239;50.932;3.142;2023-10-08T07:18:15;10.30;;;8.35;;
18228;SDS011;9239;50.932;3.142;2023-10-08T07:20:49;13.05;;;7.93;;
18228;SDS011;9239;50.932;3.142;2023-10-08T07:23:19;7.05;;;5.97;;
18228;SDS011;9239;50.932;3.142;2023-10-08T07:25:53;8.82;;;6.65;;
18228;SDS011;9239;50.932;3.142;2023-10-08T07:28:26;8.10;;;6.45;;
18228;SDS011;9239;50.932;3.142;2023-10-08T07:30:55;9.52;;;7.32;;
18228;SDS011;9239;50.932;3.142;2023-10-08T07:33:23;7.78;;;6.88;;
18228;SDS011;9239;50.932;3.142;2023-10-08T07:36:01;10.43;;;7.40;;
18228;SDS011;9239;50.932;3.142;2023-10-08T07:38:37;7.22;;;6.53;;
18228;SDS011;9239;50.932;3.142;2023-10-08T07:41:07;8.85;;;7.22;;
18228;SDS011;9239;50.932;3.142;2023-10-08T07:43:35;8.60;;;7.72;;
18228;SDS011;9239;50.932;3.142;2023-10-08T07:46:02;9.02;;;7.85;;
18228;SDS011;9239;50.932;3.142;2023-10-08T07:48:30;11.38;;;7.03;;
18228;SDS011;9239;50.932;3.142;2023-10-08T07:50:57;10.27;;;7.47;;
18228;SDS011;9239;50.932;3.142;2023-10-08T07:53:24;8.07;;;6.80;;
18228;SDS011;9239;50.932;3.142;2023-10-08T07:56:03;7.10;;;6.28;;
18228;SDS011;9239;50.932;3.142;2023-10-08T07:58:33;9.05;;;7.10;;
18228;SDS011;9239;50.932;3.142;2023-10-08T08:01:03;12.00;;;7.65;;
18228;SDS011;9239;50.932;3.142;2023-10-08T08:03:31;8.15;;;7.05;;
18228;SDS011;9239;50.932;3.142;2023-10-08T08:06:01;7.28;;;6.40;;
18228;SDS011;9239;50.932;3.142;2023-10-08T08:08:31;10.30;;;6.82;;
18228;SDS011;9239;50.932;3.142;2023-10-08T08:10:59;7.88;;;6.93;;
18228;SDS011;9239;50.932;3.142;2023-10-08T08:13:31;8.55;;;7.32;;
18228;SDS011;9239;50.932;3.142;2023-10-08T08:16:00;10.75;;;7.20;;
18228;SDS011;9239;50.932;3.142;2023-10-08T08:18:41;9.73;;;6.75;;
18228;SDS011;9239;50.932;3.142;2023-10-08T08:21:09;13.40;;;8.13;;
18228;SDS011;9239;50.932;3.142;2023-10-08T08:23:39;7.88;;;6.93;;
18228;SDS011;9239;50.932;3.142;2023-10-08T08:26:13;13.27;;;8.13;;
18228;SDS011;9239;50.932;3.142;2023-10-08T08:28:53;10.50;;;7.60;;
18228;SDS011;9239;50.932;3.142;2023-10-08T08:31:23;10.13;;;7.45;;
18228;SDS011;9239;50.932;3.142;2023-10-08T08:33:51;12.25;;;8.13;;
18228;SDS011;9239;50.932;3.142;2023-10-08T08:36:27;7.95;;;6.90;;
18228;SDS011;9239;50.932;3.142;2023-10-08T08:38:55;8.13;;;6.90;;
18228;SDS011;9239;50.932;3.142;2023-10-08T08:41:23;11.50;;;7.97;;
18228;SDS011;9239;50.932;3.142;2023-10-08T08:43:50;9.70;;;7.32;;
18228;SDS011;9239;50.932;3.142;2023-10-08T08:46:30;8.52;;;7.45;;
18228;SDS011;9239;50.932;3.142;2023-10-08T08:49:00;9.18;;;7.50;;
18228;SDS011;9239;50.932;3.142;2023-10-08T08:51:30;10.65;;;7.10;;
18228;SDS011;9239;50.932;3.142;2023-10-08T08:53:57;11.65;;;7.20;;
18228;SDS011;9239;50.932;3.142;2023-10-08T08:56:26;12.75;;;8.25;;
18228;SDS011;9239;50.932;3.142;2023-10-08T08:58:55;11.13;;;7.03;;
18228;SDS011;9239;50.932;3.142;2023-10-08T09:01:24;8.13;;;7.13;;
18228;SDS011;9239;50.932;3.142;2023-10-08T09:03:52;9.77;;;7.80;;
18228;SDS011;9239;50.932;3.142;2023-10-08T09:06:26;11.63;;;8.40;;
18228;SDS011;9239;50.932;3.142;2023-10-08T09:08:54;8.27;;;7.35;;
18228;SDS011;9239;50.932;3.142;2023-10-08T09:11:38;9.15;;;7.88;;
18228;SDS011;9239;50.932;3.142;2023-10-08T09:14:08;15.23;;;7.88;;
18228;SDS011;9239;50.932;3.142;2023-10-08T09:16:36;10.95;;;7.65;;
18228;SDS011;9239;50.932;3.142;2023-10-08T09:19:05;12.18;;;7.85;;
18228;SDS011;9239;50.932;3.142;2023-10-08T09:21:37;7.85;;;7.05;;
18228;SDS011;9239;50.932;3.142;2023-10-08T09:24:04;11.45;;;7.57;;
18228;SDS011;9239;50.932;3.142;2023-10-08T09:26:35;9.93;;;7.35;;
18228;SDS011;9239;50.932;3.142;2023-10-08T09:29:05;8.57;;;7.70;;
18228;SDS011;9239;50.932;3.142;2023-10-08T09:31:33;8.93;;;8.00;;
18228;SDS011;9239;50.932;3.142;2023-10-08T09:34:02;9.75;;;7.53;;
18228;SDS011;9239;50.932;3.142;2023-10-08T09:36:31;13.38;;;8.02;;
18228;SDS011;9239;50.932;3.142;2023-10-08T09:38:59;12.18;;;8.88;;
18228;SDS011;9239;50.932;3.142;2023-10-08T09:41:29;9.40;;;7.80;;
18228;SDS011;9239;50.932;3.142;2023-10-08T09:43:58;9.82;;;7.90;;
18228;SDS011;9239;50.932;3.142;2023-10-08T09:46:27;10.50;;;7.63;;
18228;SDS011;9239;50.932;3.142;2023-10-08T09:48:59;11.63;;;8.73;;
18228;SDS011;9239;50.932;3.142;2023-10-08T09:51:33;13.07;;;7.65;;
18228;SDS011;9239;50.932;3.142;2023-10-08T09:54:05;12.57;;;8.70;;
18228;SDS011;9239;50.932;3.142;2023-10-08T09:56:39;11.05;;;7.53;;
18228;SDS011;9239;50.932;3.142;2023-10-08T09:59:08;10.48;;;9.38;;
18228;SDS011;9239;50.932;3.142;2023-10-08T10:01:36;11.90;;;8.50;;
18228;SDS011;9239;50.932;3.142;2023-10-08T10:04:08;15.35;;;11.00;;
18228;SDS011;9239;50.932;3.142;2023-10-08T10:06:37;12.82;;;9.98;;
18228;SDS011;9239;50.932;3.142;2023-10-08T10:09:05;13.98;;;9.23;;
18228;SDS011;9239;50.932;3.142;2023-10-08T10:11:38;13.95;;;9.77;;
18228;SDS011;9239;50.932;3.142;2023-10-08T10:14:04;10.70;;;8.75;;
18228;SDS011;9239;50.932;3.142;2023-10-08T10:16:31;11.82;;;7.88;;
18228;SDS011;9239;50.932;3.142;2023-10-08T10:19:04;10.23;;;8.57;;
18228;SDS011;9239;50.932;3.142;2023-10-08T10:21:32;10.65;;;8.50;;
18228;SDS011;9239;50.932;3.142;2023-10-08T10:24:03;8.88;;;7.70;;
18228;SDS011;9239;50.932;3.142;2023-10-08T10:26:31;10.95;;;8.32;;
18228;SDS011;9239;50.932;3.142;2023-10-08T10:29:18;8.57;;;7.55;;
18228;SDS011;9239;50.932;3.142;2023-10-08T10:31:45;13.32;;;9.30;;
18228;SDS011;9239;50.932;3.142;2023-10-08T10:34:14;12.15;;;7.70;;
18228;SDS011;9239;50.932;3.142;2023-10-08T10:36:43;10.38;;;7.63;;
18228;SDS011;9239;50.932;3.142;2023-10-08T10:39:15;9.98;;;8.00;;
18228;SDS011;9239;50.932;3.142;2023-10-08T10:41:51;13.18;;;8.18;;
18228;SDS011;9239;50.932;3.142;2023-10-08T10:44:22;11.57;;;9.88;;
18228;SDS011;9239;50.932;3.142;2023-10-08T10:46:50;8.05;;;7.25;;
18228;SDS011;9239;50.932;3.142;2023-10-08T10:49:17;10.25;;;7.57;;
18228;SDS011;9239;50.932;3.142;2023-10-08T10:51:47;10.65;;;6.97;;
18228;SDS011;9239;50.932;3.142;2023-10-08T10:54:23;8.52;;;6.93;;
18228;SDS011;9239;50.932;3.142;2023-10-08T10:56:50;8.45;;;7.35;;
18228;SDS011;9239;50.932;3.142;2023-10-08T10:59:28;9.77;;;7.68;;
18228;SDS011;9239;50.932;3.142;2023-10-08T11:02:02;10.57;;;7.43;;
18228;SDS011;9239;50.932;3.142;2023-10-08T11:04:33;8.73;;;7.32;;
18228;SDS011;9239;50.932;3.142;2023-10-08T11:07:12;11.98;;;7.28;;
18228;SDS011;9239;50.932;3.142;2023-10-08T11:09:42;10.63;;;7.00;;
18228;SDS011;9239;50.932;3.142;2023-10-08T11:12:10;9.88;;;7.50;;
18228;SDS011;9239;50.932;3.142;2023-10-08T11:14:45;11.15;;;6.80;;
18228;SDS011;9239;50.932;3.142;2023-10-08T11:17:13;11.82;;;8.00;;
18228;SDS011;9239;50.932;3.142;2023-10-08T11:19:41;10.55;;;7.75;;
18228;SDS011;9239;50.932;3.142;2023-10-08T11:22:11;11.05;;;7.68;;
18228;SDS011;9239;50.932;3.142;2023-10-08T11:24:43;11.18;;;7.30;;
18228;SDS011;9239;50.932;3.142;2023-10-08T11:27:13;9.10;;;7.40;;
18228;SDS011;9239;50.932;3.142;2023-10-08T11:29:54;7.95;;;7.13;;
18228;SDS011;9239;50.932;3.142;2023-10-08T11:32:23;10.02;;;7.05;;
18228;SDS011;9239;50.932;3.142;2023-10-08T11:34:54;11.75;;;6.78;;
18228;SDS011;9239;50.932;3.142;2023-10-08T11:37:28;8.38;;;7.30;;
18228;SDS011;9239;50.932;3.142;2023-10-08T11:39:56;7.70;;;6.85;;
18228;SDS011;9239;50.932;3.142;2023-10-08T11:42:24;11.68;;;7.22;;
18228;SDS011;9239;50.932;3.142;2023-10-08T11:45:08;8.52;;;6.78;;
18228;SDS011;9239;50.932;3.142;2023-10-08T11:47:49;8.98;;;7.25;;
18228;SDS011;9239;50.932;3.142;2023-10-08T11:50:22;7.78;;;6.65;;
18228;SDS011;9239;50.932;3.142;2023-10-08T11:52:56;10.63;;;7.20;;
18228;SDS011;9239;50.932;3.142;2023-10-08T11:55:29;8.65;;;7.63;;
18228;SDS011;9239;50.932;3.142;2023-10-08T11:58:00;10.25;;;7.22;;
18228;SDS011;9239;50.932;3.142;2023-10-08T12:00:35;10.35;;;6.95;;
18228;SDS011;9239;50.932;3.142;2023-10-08T12:03:09;11.98;;;7.47;;
18228;SDS011;9239;50.932;3.142;2023-10-08T12:05:37;8.82;;;6.97;;
18228;SDS011;9239;50.932;3.142;2023-10-08T12:08:12;10.50;;;6.68;;
18228;SDS011;9239;50.932;3.142;2023-10-08T12:10:44;9.10;;;6.57;;
18228;SDS011;9239;50.932;3.142;2023-10-08T12:13:13;11.57;;;6.88;;
18228;SDS011;9239;50.932;3.142;2023-10-08T12:15:41;7.75;;;6.10;;
18228;SDS011;9239;50.932;3.142;2023-10-08T12:18:09;6.90;;;5.50;;
18228;SDS011;9239;50.932;3.142;2023-10-08T12:20:40;8.88;;;6.05;;
18228;SDS011;9239;50.932;3.142;2023-10-08T12:23:10;8.60;;;6.15;;
18228;SDS011;9239;50.932;3.142;2023-10-08T12:25:46;8.15;;;6.03;;
18228;SDS011;9239;50.932;3.142;2023-10-08T12:28:16;10.05;;;6.10;;
18228;SDS011;9239;50.932;3.142;2023-10-08T12:30:44;11.25;;;6.30;;
18228;SDS011;9239;50.932;3.142;2023-10-08T12:33:11;7.82;;;5.35;;
18228;SDS011;9239;50.932;3.142;2023-10-08T12:35:41;7.57;;;6.22;;
18228;SDS011;9239;50.932;3.142;2023-10-08T12:38:09;8.25;;;5.95;;
18228;SDS011;9239;50.932;3.142;2023-10-08T12:40:36;8.65;;;6.20;;
18228;SDS011;9239;50.932;3.142;2023-10-08T12:43:19;8.27;;;6.43;;
18228;SDS011;9239;50.932;3.142;2023-10-08T12:45:46;6.90;;;6.10;;
18228;SDS011;9239;50.932;3.142;2023-10-08T12:48:20;9.73;;;6.70;;
18228;SDS011;9239;50.932;3.142;2023-10-08T12:50:47;6.82;;;5.70;;
18228;SDS011;9239;50.932;3.142;2023-10-08T12:53:21;8.02;;;4.88;;
18228;SDS011;9239;50.932;3.142;2023-10-08T12:55:59;5.22;;;4.68;;
18228;SDS011;9239;50.932;3.142;2023-10-08T12:58:32;8.52;;;5.18;;
18228;SDS011;9239;50.932;3.142;2023-10-08T13:01:06;10.68;;;5.35;;
18228;SDS011;9239;50.932;3.142;2023-10-08T13:03:34;7.88;;;4.78;;
18228;SDS011;9239;50.932;3.142;2023-10-08T13:06:06;7.30;;;5.15;;
18228;SDS011;9239;50.932;3.142;2023-10-08T13:08:36;6.68;;;4.97;;
18228;SDS011;9239;50.932;3.142;2023-10-08T13:11:04;7.43;;;5.10;;
18228;SDS011;9239;50.932;3.142;2023-10-08T13:13:33;8.73;;;6.18;;
18228;SDS011;9239;50.932;3.142;2023-10-08T13:16:01;6.07;;;5.47;;
18228;SDS011;9239;50.932;3.142;2023-10-08T13:18:32;8.55;;;5.22;;
18228;SDS011;9239;50.932;3.142;2023-10-08T13:21:02;9.02;;;4.93;;
18228;SDS011;9239;50.932;3.142;2023-10-08T13:23:30;7.82;;;4.75;;
18228;SDS011;9239;50.932;3.142;2023-10-08T13:26:00;6.13;;;4.57;;
18228;SDS011;9239;50.932;3.142;2023-10-08T13:28:33;6.30;;;4.68;;
18228;SDS011;9239;50.932;3.142;2023-10-08T13:31:01;6.05;;;5.15;;
18228;SDS011;9239;50.932;3.142;2023-10-08T13:33:34;10.55;;;4.93;;
18228;SDS011;9239;50.932;3.142;2023-10-08T13:36:04;7.45;;;4.30;;
18228;SDS011;9239;50.932;3.142;2023-10-08T13:38:33;8.18;;;5.50;;
18228;SDS011;9239;50.932;3.142;2023-10-08T13:41:01;6.45;;;4.65;;
18228;SDS011;9239;50.932;3.142;2023-10-08T13:43:29;6.07;;;4.22;;
18228;SDS011;9239;50.932;3.142;2023-10-08T13:46:05;6.88;;;4.72;;
18228;SDS011;9239;50.932;3.142;2023-10-08T13:48:38;8.80;;;4.55;;
18228;SDS011;9239;50.932;3.142;2023-10-08T13:51:06;7.15;;;4.65;;
18228;SDS011;9239;50.932;3.142;2023-10-08T13:53:38;11.30;;;5.93;;
18228;SDS011;9239;50.932;3.142;2023-10-08T13:56:06;7.32;;;4.72;;
18228;SDS011;9239;50.932;3.142;2023-10-08T13:58:36;5.93;;;4.40;;
18228;SDS011;9239;50.932;3.142;2023-10-08T14:01:08;9.15;;;4.95;;
18228;SDS011;9239;50.932;3.142;2023-10-08T14:03:44;6.28;;;4.53;;
18228;SDS011;9239;50.932;3.142;2023-10-08T14:06:12;7.93;;;4.60;;
18228;SDS011;9239;50.932;3.142;2023-10-08T14:08:39;6.22;;;4.50;;
18228;SDS011;9239;50.932;3.142;2023-10-08T14:11:09;8.38;;;5.10;;
18228;SDS011;9239;50.932;3.142;2023-10-08T14:13:38;5.78;;;4.07;;
18228;SDS011;9239;50.932;3.142;2023-10-08T14:16:08;5.55;;;4.75;;
18228;SDS011;9239;50.932;3.142;2023-10-08T14:18:36;5.43;;;3.83;;
18228;SDS011;9239;50.932;3.142;2023-10-08T14:21:06;4.95;;;3.95;;
18228;SDS011;9239;50.932;3.142;2023-10-08T14:23:35;4.93;;;3.63;;
18228;SDS011;9239;50.932;3.142;2023-10-08T14:26:04;6.53;;;4.28;;
18228;SDS011;9239;50.932;3.142;2023-10-08T14:28:32;6.22;;;4.30;;
18228;SDS011;9239;50.932;3.142;2023-10-08T14:31:17;6.60;;;3.60;;
18228;SDS011;9239;50.932;3.142;2023-10-08T14:33:48;4.85;;;3.67;;
18228;SDS011;9239;50.932;3.142;2023-10-08T14:36:30;5.43;;;3.50;;
18228;SDS011;9239;50.932;3.142;2023-10-08T14:39:15;4.38;;;3.63;;
18228;SDS011;9239;50.932;3.142;2023-10-08T14:41:59;4.28;;;3.28;;
18228;SDS011;9239;50.932;3.142;2023-10-08T14:44:43;4.32;;;3.50;;
18228;SDS011;9239;50.932;3.142;2023-10-08T14:47:13;4.40;;;3.83;;
18228;SDS011;9239;50.932;3.142;2023-10-08T14:49:40;4.80;;;3.40;;
18228;SDS011;9239;50.932;3.142;2023-10-08T14:52:11;6.22;;;3.83;;
18228;SDS011;9239;50.932;3.142;2023-10-08T14:54:39;4.55;;;3.40;;
18228;SDS011;9239;50.932;3.142;2023-10-08T14:57:08;4.07;;;3.67;;
18228;SDS011;9239;50.932;3.142;2023-10-08T14:59:37;4.07;;;3.35;;
18228;SDS011;9239;50.932;3.142;2023-10-08T15:02:05;4.40;;;3.60;;
18228;SDS011;9239;50.932;3.142;2023-10-08T15:04:34;7.13;;;4.47;;
18228;SDS011;9239;50.932;3.142;2023-10-08T15:07:04;5.03;;;4.40;;
18228;SDS011;9239;50.932;3.142;2023-10-08T15:09:33;5.55;;;4.57;;
18228;SDS011;9239;50.932;3.142;2023-10-08T15:12:00;6.03;;;4.03;;
18228;SDS011;9239;50.932;3.142;2023-10-08T15:14:27;4.90;;;4.40;;
18228;SDS011;9239;50.932;3.142;2023-10-08T15:16:54;4.28;;;3.85;;
18228;SDS011;9239;50.932;3.142;2023-10-08T15:19:22;6.10;;;4.30;;
18228;SDS011;9239;50.932;3.142;2023-10-08T15:21:51;5.80;;;3.60;;
18228;SDS011;9239;50.932;3.142;2023-10-08T15:24:18;6.38;;;3.92;;
18228;SDS011;9239;50.932;3.142;2023-10-08T15:26:46;4.43;;;4.03;;